Delray Beach, FL

12:20 PM EST on December 10, 2019 (GMT -0500)
Bolton Home | | Change Station
Active Advisory: Coastal Hazard Statement Active Notice: Coastal Hazard Statement

Elev 36 ft 26.45 °N, 80.07 °W | Updated 12 seconds ago

Partly Cloudy
Partly Cloudy
41.4 °F
Feels Like 41 °F
N
2.2
Wind Variable Wind from NE
Gusts 9.2 mph

Today
High -- | Low -- °F
--% Chance of Precip.
Yesterday
High -- | Low -- °F
Precip. -- in
Pressure 30.12 in
Visibility 7.0 miles
Clouds Few 1700 ft
Scattered Clouds 2300 ft
Windchill 41 °F
Dew Point 38 °F
Humidity 88%
Rainfall 0.28 in
Snow Depth Not available.
6:57 AM 5:28 PM
Waxing Gibbous, 97% visible
METAR KPMP 101653Z 14012KT 7SM FEW017 SCT023 28/22 A3012 RMK AO2 SLP199 T02780222
Pressure 30.12 in
Visibility 7.0 miles
Clouds Few 1700 ft
Scattered Clouds 2300 ft
Windchill 41 °F
Dew Point 38 °F
Humidity 88%
Rainfall 0.28 in
Snow Depth Not available.
6:57 AM 5:28 PM
Waxing Gibbous, 97% visible
METAR KPMP 101653Z 14012KT 7SM FEW017 SCT023 28/22 A3012 RMK AO2 SLP199 T02780222

Get Your Daily Forecast Email!

Thanks for signing up!

Be on the lookout for a verification email in your inbox.

You'll start receiving severe weather alerts in your inbox..

×

10-Day Weather Forecast

Almanac

Astronomy

Dec. 10, 2019 Rise Set
Actual Time
Civil Twilight
Nautical Twilight
Astronomical Twilight
Moon
Length of Visible Light
Length of Day
Tomorrow will be .
, % of the Moon is Illuminated

Today's Extremes

State Highs State Lows

Community

WunderPhotos

Category 6

Welcome to Category 6. This is the collective home for Weather Underground's featured writeups by Dr. Jeff Masters (right), Bob Henson (left), Chris Burt, and other regular contributors.

Nearby

Air Quality

  Air Quality AQ Index Pollutant
Not available.

Snow Depth

Station Depth Elevation

Earthquake Activity

City Distance Mag. Time & Date
Minimum magnitude displayed is 2.5.

Coastal Water Temperatures

Place Temperature

Stations

Nearby Weather Stations

Station Location Temp. Windchill Dew Point Humidity Wind Precip. Elev Updated Type
                   

Watches & Warnings

Coastal Hazard Statement
Issued: 3:29 AM EST Dec. 10, 2019 – National Weather Service

... High rip current risk in effect through this evening...

* what... dangerous rip currents.

* Where... coastal Palm Beach County.

* When... through this evening.

* Impacts... rip currents can sweep even the best swimmers away
from shore into deeper water.

Precautionary/preparedness actions...

Swim near a lifeguard. If caught in a rip current, relax and
float. Don't swim against the current. If able, swim in a
direction following the shoreline. If unable to escape, face the
shore and call or wave for help.